Aérodrome :
LOGIN :

S'inscrire | Disclaimer

   EN    FR    IT 

 










Légende :    VFR   VFR Marginal   IFR   IFR Intensif   IFR Très Intensif
Visi : 
Plafond : 
>= 8 km
>= 3000ft
5 à 8 km
1000 à 3000 ft
1500m à 5 km
500 à 1000 ft
800 à 1500m
200 à 500 ft
< 800m
< 200 ft
Symboles :   Orages  Brouillard  Fortes neiges  Fortes précipitations  Vent > 20 kt
SIGMETs :   Divers  Orages  Givrage  Turbulence  Onde Orograph.  Cendres Volcan.







- Altitude de l'aérodrome : 628 ft
- Code IATA : PNL


LICG - Pantelleria

DERNIER METAR :
  • 210850Z 08041G55KT 9999 FEW013 16/12 Q1010

METARs EXPIRÉS :
  • 210750Z 11039G57KT 9999 FEW020 15/12 Q1010
  • 210650Z 08034G56KT 050V120 9999 FEW020 15/11 Q1011

TAF TAF LICG
Valide du 21 à 09h jusqu'au 21 à 18h UTC


210800Z 2109/2118 12040G55KT 9999 FEW030
Pas de NOTAMs connus pour ce terrain.
1 SIGMET publié pour la FIR Roma (LIRR) :
 
Turbulence forte
LIRR SIGMET 2 VALID 210900/211300 LIIB
LIRR ROMA FIR SEV TURB FCST WI N4154 E00944 - N4132 E01022 - N3926 E01030 - N3833 E01244 - N3630 E01425 - N3631 E01129 - N3729 E01132 - N3900 E00758 - N4055 E00757 - N4118 E00817 - N4120 E00945 - N4154 E00944 SFC/FL080 STNR NC=



MET'MAP, la Météo Aéronautique d'un coup d'oeil ! - Copyright ORBIFLY Décembre 2007 - Disclaimer

ORBIFLY MET'MAP TEAM :

Programmation & Développement : Alexandra Zaïnal
Conception & Développement : Baudouin d'Aumeries
Co-Programmation & Développement : Marc-Olivier Méhu
Soutien technique & logistique : Manuel Goepfert

Contact : metmap@orbifly.com




SOURCES & CREDITS :

   NOAA